sensor_id;sensor_type;location;lat;lon;timestamp;pressure;altitude;pressure_sealevel;temperature;humidity
6778;BME280;3426;52.244;10.534;2023-03-16T00:01:07;101253.63;;;4.06;59.22
6778;BME280;3426;52.244;10.534;2023-03-16T00:03:33;101256.78;;;3.73;60.46
6778;BME280;3426;52.244;10.534;2023-03-16T00:06:01;101269.44;;;3.99;60.49
6778;BME280;3426;52.244;10.534;2023-03-16T00:08:28;101257.94;;;4.08;59.67
6778;BME280;3426;52.244;10.534;2023-03-16T00:10:55;101265.03;;;4.02;60.18
6778;BME280;3426;52.244;10.534;2023-03-16T00:13:22;101269.09;;;3.68;61.47
6778;BME280;3426;52.244;10.534;2023-03-16T00:15:54;101268.13;;;3.74;61.94
6778;BME280;3426;52.244;10.534;2023-03-16T00:18:22;101269.97;;;3.69;61.46
6778;BME280;3426;52.244;10.534;2023-03-16T00:20:54;101271.53;;;3.81;61.39
6778;BME280;3426;52.244;10.534;2023-03-16T00:23:21;101272.22;;;3.90;60.98
6778;BME280;3426;52.244;10.534;2023-03-16T00:25:55;101272.34;;;3.83;60.98
6778;BME280;3426;52.244;10.534;2023-03-16T00:28:28;101271.63;;;3.73;61.14
6778;BME280;3426;52.244;10.534;2023-03-16T00:31:04;101274.94;;;3.84;60.81
6778;BME280;3426;52.244;10.534;2023-03-16T00:33:30;101268.09;;;3.77;61.10
6778;BME280;3426;52.244;10.534;2023-03-16T00:36:04;101263.78;;;3.75;61.76
6778;BME280;3426;52.244;10.534;2023-03-16T00:38:35;101263.63;;;3.82;61.10
6778;BME280;3426;52.244;10.534;2023-03-16T00:41:03;101268.16;;;3.72;61.15
6778;BME280;3426;52.244;10.534;2023-03-16T00:43:31;101271.63;;;3.73;61.69
6778;BME280;3426;52.244;10.534;2023-03-16T00:46:07;101264.56;;;3.78;60.93
6778;BME280;3426;52.244;10.534;2023-03-16T00:48:35;101275.16;;;3.72;61.45
6778;BME280;3426;52.244;10.534;2023-03-16T00:51:03;101278.88;;;3.59;60.99
6778;BME280;3426;52.244;10.534;2023-03-16T00:53:35;101288.22;;;3.75;60.69
6778;BME280;3426;52.244;10.534;2023-03-16T00:56:03;101276.03;;;3.71;60.31
6778;BME280;3426;52.244;10.534;2023-03-16T00:58:34;101283.00;;;3.72;60.40
6778;BME280;3426;52.244;10.534;2023-03-16T01:01:06;101277.28;;;3.45;61.43
6778;BME280;3426;52.244;10.534;2023-03-16T01:03:34;101272.97;;;3.43;61.04
6778;BME280;3426;52.244;10.534;2023-03-16T01:06:12;101259.81;;;3.48;61.49
6778;BME280;3426;52.244;10.534;2023-03-16T01:08:40;101273.69;;;3.54;61.18
6778;BME280;3426;52.244;10.534;2023-03-16T01:11:10;101268.41;;;3.56;60.96
6778;BME280;3426;52.244;10.534;2023-03-16T01:13:37;101263.25;;;3.53;61.21
6778;BME280;3426;52.244;10.534;2023-03-16T01:16:05;101264.00;;;3.59;60.60
6778;BME280;3426;52.244;10.534;2023-03-16T01:18:32;101270.09;;;3.60;60.56
6778;BME280;3426;52.244;10.534;2023-03-16T01:21:02;101266.75;;;3.50;61.00
6778;BME280;3426;52.244;10.534;2023-03-16T01:23:29;101253.72;;;3.45;60.81
6778;BME280;3426;52.244;10.534;2023-03-16T01:25:57;101257.84;;;3.62;60.79
6778;BME280;3426;52.244;10.534;2023-03-16T01:28:26;101247.44;;;3.59;60.70
6778;BME280;3426;52.244;10.534;2023-03-16T01:30:54;101244.88;;;3.54;60.86
6778;BME280;3426;52.244;10.534;2023-03-16T01:33:25;101251.09;;;3.49;61.17
6778;BME280;3426;52.244;10.534;2023-03-16T01:36:00;101246.59;;;3.55;60.61
6778;BME280;3426;52.244;10.534;2023-03-16T01:38:27;101247.66;;;3.43;60.75
6778;BME280;3426;52.244;10.534;2023-03-16T01:40:54;101245.72;;;3.58;59.85
6778;BME280;3426;52.244;10.534;2023-03-16T01:43:23;101242.25;;;3.54;60.33
6778;BME280;3426;52.244;10.534;2023-03-16T01:48:36;101230.84;;;3.57;59.96
6778;BME280;3426;52.244;10.534;2023-03-16T01:51:15;101231.66;;;3.62;59.56
6778;BME280;3426;52.244;10.534;2023-03-16T01:53:44;101230.75;;;3.63;59.79
6778;BME280;3426;52.244;10.534;2023-03-16T01:56:14;101230.88;;;3.55;59.56
6778;BME280;3426;52.244;10.534;2023-03-16T01:58:44;101233.56;;;3.51;60.50
6778;BME280;3426;52.244;10.534;2023-03-16T02:01:12;101242.13;;;3.62;59.12
6778;BME280;3426;52.244;10.534;2023-03-16T02:03:40;101232.41;;;3.70;58.83
6778;BME280;3426;52.244;10.534;2023-03-16T02:06:15;101226.25;;;3.72;58.32
6778;BME280;3426;52.244;10.534;2023-03-16T02:08:44;101233.13;;;3.78;58.65
6778;BME280;3426;52.244;10.534;2023-03-16T02:11:13;101240.28;;;3.70;58.80
6778;BME280;3426;52.244;10.534;2023-03-16T02:13:47;101226.91;;;3.84;58.68
6778;BME280;3426;52.244;10.534;2023-03-16T02:16:15;101237.78;;;3.61;58.74
6778;BME280;3426;52.244;10.534;2023-03-16T02:18:49;101241.47;;;3.49;58.73
6778;BME280;3426;52.244;10.534;2023-03-16T02:24:07;101233.75;;;3.40;58.83
6778;BME280;3426;52.244;10.534;2023-03-16T02:26:56;101243.94;;;3.57;59.44
6778;BME280;3426;52.244;10.534;2023-03-16T02:30:12;101238.78;;;3.54;58.17
6778;BME280;3426;52.244;10.534;2023-03-16T02:32:40;101248.41;;;3.52;58.62
6778;BME280;3426;52.244;10.534;2023-03-16T02:35:08;101248.59;;;3.39;59.06
6778;BME280;3426;52.244;10.534;2023-03-16T02:37:35;101257.25;;;3.46;59.30
6778;BME280;3426;52.244;10.534;2023-03-16T02:40:16;101248.75;;;3.84;57.62
6778;BME280;3426;52.244;10.534;2023-03-16T02:42:44;101252.66;;;3.59;58.20
6778;BME280;3426;52.244;10.534;2023-03-16T02:45:12;101249.88;;;3.68;57.82
6778;BME280;3426;52.244;10.534;2023-03-16T02:47:42;101246.19;;;3.80;57.50
6778;BME280;3426;52.244;10.534;2023-03-16T02:50:11;101247.44;;;3.59;58.33
6778;BME280;3426;52.244;10.534;2023-03-16T02:52:38;101242.88;;;3.68;57.45
6778;BME280;3426;52.244;10.534;2023-03-16T02:55:06;101237.28;;;3.90;57.38
6778;BME280;3426;52.244;10.534;2023-03-16T02:57:33;101236.47;;;3.88;57.46
6778;BME280;3426;52.244;10.534;2023-03-16T03:00:00;101227.97;;;3.75;57.25
6778;BME280;3426;52.244;10.534;2023-03-16T03:02:26;101226.03;;;3.86;57.20
6778;BME280;3426;52.244;10.534;2023-03-16T03:04:53;101221.69;;;3.84;57.53
6778;BME280;3426;52.244;10.534;2023-03-16T03:07:20;101220.22;;;3.67;57.45
6778;BME280;3426;52.244;10.534;2023-03-16T03:09:47;101214.28;;;3.56;57.95
6778;BME280;3426;52.244;10.534;2023-03-16T03:12:13;101215.09;;;3.60;57.69
6778;BME280;3426;52.244;10.534;2023-03-16T03:14:40;101219.59;;;3.52;57.68
6778;BME280;3426;52.244;10.534;2023-03-16T03:17:08;101213.38;;;3.57;57.27
6778;BME280;3426;52.244;10.534;2023-03-16T03:19:35;101213.94;;;3.24;57.86
6778;BME280;3426;52.244;10.534;2023-03-16T03:22:03;101215.31;;;3.48;57.86
6778;BME280;3426;52.244;10.534;2023-03-16T03:24:32;101215.88;;;3.66;57.01
6778;BME280;3426;52.244;10.534;2023-03-16T03:27:00;101214.00;;;3.73;56.26
6778;BME280;3426;52.244;10.534;2023-03-16T03:29:31;101203.81;;;3.56;56.68
6778;BME280;3426;52.244;10.534;2023-03-16T03:32:01;101201.44;;;3.42;57.79
6778;BME280;3426;52.244;10.534;2023-03-16T03:34:28;101199.69;;;3.41;57.67
6778;BME280;3426;52.244;10.534;2023-03-16T03:36:56;101206.22;;;3.68;56.40
6778;BME280;3426;52.244;10.534;2023-03-16T03:39:23;101216.91;;;3.56;56.94
6778;BME280;3426;52.244;10.534;2023-03-16T03:41:50;101200.72;;;3.84;55.89
6778;BME280;3426;52.244;10.534;2023-03-16T03:44:23;101212.41;;;3.63;56.09
6778;BME280;3426;52.244;10.534;2023-03-16T03:46:51;101216.22;;;3.47;56.46
6778;BME280;3426;52.244;10.534;2023-03-16T03:49:17;101218.13;;;3.35;56.65
6778;BME280;3426;52.244;10.534;2023-03-16T03:51:44;101227.78;;;3.32;56.34
6778;BME280;3426;52.244;10.534;2023-03-16T03:54:10;101212.63;;;3.51;56.38
6778;BME280;3426;52.244;10.534;2023-03-16T03:56:37;101220.47;;;3.52;56.22
6778;BME280;3426;52.244;10.534;2023-03-16T03:59:03;101226.09;;;3.29;56.51
6778;BME280;3426;52.244;10.534;2023-03-16T04:01:30;101227.56;;;3.44;56.17
6778;BME280;3426;52.244;10.534;2023-03-16T04:03:56;101215.78;;;3.71;55.27
6778;BME280;3426;52.244;10.534;2023-03-16T04:06:23;101213.03;;;3.79;55.21
6778;BME280;3426;52.244;10.534;2023-03-16T04:08:49;101210.97;;;3.47;55.80
6778;BME280;3426;52.244;10.534;2023-03-16T04:11:16;101217.69;;;3.61;56.00
6778;BME280;3426;52.244;10.534;2023-03-16T04:13:42;101214.28;;;3.58;55.29
6778;BME280;3426;52.244;10.534;2023-03-16T04:16:09;101221.44;;;3.45;55.94
6778;BME280;3426;52.244;10.534;2023-03-16T04:18:35;101232.47;;;3.65;55.55
6778;BME280;3426;52.244;10.534;2023-03-16T04:21:05;101227.69;;;3.38;55.46
6778;BME280;3426;52.244;10.534;2023-03-16T04:23:33;101229.47;;;3.34;55.65
6778;BME280;3426;52.244;10.534;2023-03-16T04:26:00;101220.53;;;3.49;55.29
6778;BME280;3426;52.244;10.534;2023-03-16T04:28:27;101223.44;;;3.31;55.62
6778;BME280;3426;52.244;10.534;2023-03-16T04:30:53;101216.81;;;3.07;55.43
6778;BME280;3426;52.244;10.534;2023-03-16T04:33:20;101220.34;;;3.03;55.89
6778;BME280;3426;52.244;10.534;2023-03-16T04:35:47;101224.38;;;3.25;54.91
6778;BME280;3426;52.244;10.534;2023-03-16T04:38:14;101225.31;;;3.21;54.85
6778;BME280;3426;52.244;10.534;2023-03-16T04:40:40;101223.00;;;3.01;54.71
6778;BME280;3426;52.244;10.534;2023-03-16T04:43:07;101224.88;;;3.49;54.05
6778;BME280;3426;52.244;10.534;2023-03-16T04:45:33;101227.38;;;3.56;53.46
6778;BME280;3426;52.244;10.534;2023-03-16T04:48:00;101227.28;;;3.64;52.37
6778;BME280;3426;52.244;10.534;2023-03-16T04:50:26;101227.56;;;3.44;52.99
6778;BME280;3426;52.244;10.534;2023-03-16T04:52:53;101231.28;;;3.31;53.68
6778;BME280;3426;52.244;10.534;2023-03-16T04:55:19;101230.53;;;3.21;53.69
6778;BME280;3426;52.244;10.534;2023-03-16T04:57:48;101223.13;;;3.49;53.38
6778;BME280;3426;52.244;10.534;2023-03-16T05:00:15;101216.94;;;3.55;53.02
6778;BME280;3426;52.244;10.534;2023-03-16T05:02:48;101226.69;;;3.47;52.71
6778;BME280;3426;52.244;10.534;2023-03-16T05:05:15;101225.28;;;3.24;53.70
6778;BME280;3426;52.244;10.534;2023-03-16T05:07:43;101215.13;;;3.03;53.69
6778;BME280;3426;52.244;10.534;2023-03-16T05:10:11;101224.47;;;3.19;53.90
6778;BME280;3426;52.244;10.534;2023-03-16T05:12:39;101219.59;;;3.52;52.57
6778;BME280;3426;52.244;10.534;2023-03-16T05:15:06;101233.47;;;3.57;52.72
6778;BME280;3426;52.244;10.534;2023-03-16T05:17:33;101232.81;;;3.44;52.62
6778;BME280;3426;52.244;10.534;2023-03-16T05:20:00;101230.13;;;3.49;52.35
6778;BME280;3426;52.244;10.534;2023-03-16T05:22:27;101236.06;;;3.03;52.52
6778;BME280;3426;52.244;10.534;2023-03-16T05:24:53;101224.81;;;3.52;52.05
6778;BME280;3426;52.244;10.534;2023-03-16T05:27:20;101229.72;;;3.73;51.55
6778;BME280;3426;52.244;10.534;2023-03-16T05:29:46;101228.94;;;3.68;50.92
6778;BME280;3426;52.244;10.534;2023-03-16T05:32:13;101239.22;;;3.79;51.41
6778;BME280;3426;52.244;10.534;2023-03-16T05:34:39;101239.44;;;3.66;51.36
6778;BME280;3426;52.244;10.534;2023-03-16T05:37:08;101237.66;;;3.70;51.38
6778;BME280;3426;52.244;10.534;2023-03-16T05:39:35;101246.53;;;3.60;50.99
6778;BME280;3426;52.244;10.534;2023-03-16T05:42:02;101237.50;;;3.24;51.44
6778;BME280;3426;52.244;10.534;2023-03-16T05:44:29;101238.91;;;3.44;51.02
6778;BME280;3426;52.244;10.534;2023-03-16T05:46:55;101227.72;;;3.36;51.09
6778;BME280;3426;52.244;10.534;2023-03-16T05:49:22;101223.19;;;3.44;51.80
6778;BME280;3426;52.244;10.534;2023-03-16T05:51:48;101230.72;;;3.09;51.60
6778;BME280;3426;52.244;10.534;2023-03-16T05:54:15;101222.53;;;3.32;51.07
6778;BME280;3426;52.244;10.534;2023-03-16T05:59:17;101229.69;;;3.21;50.57
6778;BME280;3426;52.244;10.534;2023-03-16T06:01:44;101216.56;;;3.22;50.36
6778;BME280;3426;52.244;10.534;2023-03-16T06:04:10;101216.91;;;2.99;50.93
6778;BME280;3426;52.244;10.534;2023-03-16T06:06:37;101225.09;;;3.36;50.50
6778;BME280;3426;52.244;10.534;2023-03-16T06:09:03;101218.81;;;3.45;50.54
6778;BME280;3426;52.244;10.534;2023-03-16T06:11:30;101222.97;;;3.60;49.59
6778;BME280;3426;52.244;10.534;2023-03-16T06:13:59;101216.75;;;3.65;49.66
6778;BME280;3426;52.244;10.534;2023-03-16T06:16:26;101206.44;;;3.58;49.54
6778;BME280;3426;52.244;10.534;2023-03-16T06:18:53;101198.84;;;3.39;50.38
6778;BME280;3426;52.244;10.534;2023-03-16T06:21:24;101203.41;;;3.81;49.89
6778;BME280;3426;52.244;10.534;2023-03-16T06:23:51;101197.31;;;3.80;49.30
6778;BME280;3426;52.244;10.534;2023-03-16T06:26:17;101197.59;;;3.63;50.08
6778;BME280;3426;52.244;10.534;2023-03-16T06:28:44;101191.66;;;4.02;49.97
6778;BME280;3426;52.244;10.534;2023-03-16T06:31:10;101196.22;;;3.92;49.75
6778;BME280;3426;52.244;10.534;2023-03-16T06:33:37;101199.84;;;4.30;48.85
6778;BME280;3426;52.244;10.534;2023-03-16T06:36:04;101193.72;;;4.32;49.82
6778;BME280;3426;52.244;10.534;2023-03-16T06:38:30;101205.50;;;4.08;49.72
6778;BME280;3426;52.244;10.534;2023-03-16T06:40:57;101215.81;;;4.17;49.56
6778;BME280;3426;52.244;10.534;2023-03-16T06:43:23;101205.38;;;4.61;49.97
6778;BME280;3426;52.244;10.534;2023-03-16T06:45:50;101211.47;;;5.01;48.96
6778;BME280;3426;52.244;10.534;2023-03-16T06:48:16;101213.66;;;5.20;48.71
6778;BME280;3426;52.244;10.534;2023-03-16T06:50:45;101205.84;;;5.88;47.55
6778;BME280;3426;52.244;10.534;2023-03-16T06:53:12;101210.78;;;5.66;47.85
6778;BME280;3426;52.244;10.534;2023-03-16T06:55:38;101222.25;;;5.64;47.76
6778;BME280;3426;52.244;10.534;2023-03-16T06:58:06;101212.97;;;5.50;48.16
6778;BME280;3426;52.244;10.534;2023-03-16T07:00:32;101209.06;;;6.01;47.90
6778;BME280;3426;52.244;10.534;2023-03-16T07:02:59;101222.72;;;5.45;49.02
6778;BME280;3426;52.244;10.534;2023-03-16T07:05:27;101226.44;;;5.71;47.86
6778;BME280;3426;52.244;10.534;2023-03-16T07:07:53;101227.38;;;6.04;48.18
6778;BME280;3426;52.244;10.534;2023-03-16T07:10:20;101240.91;;;5.53;48.16
6778;BME280;3426;52.244;10.534;2023-03-16T07:12:46;101236.53;;;5.88;47.43
6778;BME280;3426;52.244;10.534;2023-03-16T07:15:13;101241.91;;;6.19;47.15
6778;BME280;3426;52.244;10.534;2023-03-16T07:17:39;101245.66;;;5.73;48.08
6778;BME280;3426;52.244;10.534;2023-03-16T07:20:08;101230.13;;;5.99;48.25
6778;BME280;3426;52.244;10.534;2023-03-16T07:22:36;101233.66;;;5.98;47.89
6778;BME280;3426;52.244;10.534;2023-03-16T07:25:03;101239.84;;;6.30;46.91
6778;BME280;3426;52.244;10.534;2023-03-16T07:27:30;101240.16;;;6.18;47.59
6778;BME280;3426;52.244;10.534;2023-03-16T07:29:57;101238.38;;;6.82;47.33
6778;BME280;3426;52.244;10.534;2023-03-16T07:32:25;101241.75;;;6.23;47.19
6778;BME280;3426;52.244;10.534;2023-03-16T07:34:51;101248.63;;;6.29;47.11
6778;BME280;3426;52.244;10.534;2023-03-16T07:37:18;101240.31;;;6.11;48.38
6778;BME280;3426;52.244;10.534;2023-03-16T07:39:50;101253.06;;;6.59;47.85
6778;BME280;3426;52.244;10.534;2023-03-16T07:42:17;101258.00;;;6.39;48.12
6778;BME280;3426;52.244;10.534;2023-03-16T07:44:45;101251.78;;;6.73;47.69
6778;BME280;3426;52.244;10.534;2023-03-16T07:47:12;101258.22;;;6.62;47.26
6778;BME280;3426;52.244;10.534;2023-03-16T07:49:38;101249.53;;;6.90;46.17
6778;BME280;3426;52.244;10.534;2023-03-16T07:52:07;101262.28;;;6.74;47.28
6778;BME280;3426;52.244;10.534;2023-03-16T07:54:33;101260.44;;;7.35;46.50
6778;BME280;3426;52.244;10.534;2023-03-16T07:57:00;101260.97;;;6.89;46.58
6778;BME280;3426;52.244;10.534;2023-03-16T07:59:26;101258.97;;;7.81;45.76
6778;BME280;3426;52.244;10.534;2023-03-16T08:01:52;101249.00;;;8.16;44.59
6778;BME280;3426;52.244;10.534;2023-03-16T08:04:19;101252.75;;;7.84;44.12
6778;BME280;3426;52.244;10.534;2023-03-16T08:06:45;101246.13;;;8.48;42.32
6778;BME280;3426;52.244;10.534;2023-03-16T08:09:13;101252.78;;;8.59;42.07
6778;BME280;3426;52.244;10.534;2023-03-16T08:11:45;101250.00;;;8.63;42.27
6778;BME280;3426;52.244;10.534;2023-03-16T08:14:11;101254.44;;;9.32;40.52
6778;BME280;3426;52.244;10.534;2023-03-16T08:16:38;101244.94;;;10.12;39.98
6778;BME280;3426;52.244;10.534;2023-03-16T08:19:04;101245.44;;;10.20;38.73
6778;BME280;3426;52.244;10.534;2023-03-16T08:21:31;101253.16;;;10.47;39.00
6778;BME280;3426;52.244;10.534;2023-03-16T08:23:58;101246.34;;;10.80;38.32
6778;BME280;3426;52.244;10.534;2023-03-16T08:26:24;101240.75;;;10.86;38.38
6778;BME280;3426;52.244;10.534;2023-03-16T08:28:52;101238.88;;;10.70;37.50
6778;BME280;3426;52.244;10.534;2023-03-16T08:31:20;101238.69;;;11.31;36.66
6778;BME280;3426;52.244;10.534;2023-03-16T08:33:47;101232.28;;;11.71;35.91
6778;BME280;3426;52.244;10.534;2023-03-16T08:36:15;101237.78;;;11.85;34.16
6778;BME280;3426;52.244;10.534;2023-03-16T08:38:42;101244.34;;;11.23;35.78
6778;BME280;3426;52.244;10.534;2023-03-16T08:41:25;101243.59;;;11.57;35.07
6778;BME280;3426;52.244;10.534;2023-03-16T08:43:55;101240.25;;;12.40;32.82
6778;BME280;3426;52.244;10.534;2023-03-16T08:46:23;101247.72;;;12.67;34.11
6778;BME280;3426;52.244;10.534;2023-03-16T08:48:49;101256.16;;;10.97;35.17
6778;BME280;3426;52.244;10.534;2023-03-16T08:51:16;101253.38;;;11.74;34.96
6778;BME280;3426;52.244;10.534;2023-03-16T08:53:43;101257.50;;;12.66;33.59
6778;BME280;3426;52.244;10.534;2023-03-16T08:56:11;101248.88;;;12.11;34.25
6778;BME280;3426;52.244;10.534;2023-03-16T08:58:40;101241.94;;;11.55;36.02
6778;BME280;3426;52.244;10.534;2023-03-16T09:01:13;101256.81;;;11.02;35.78
6778;BME280;3426;52.244;10.534;2023-03-16T09:03:40;101248.13;;;10.61;37.55
6778;BME280;3426;52.244;10.534;2023-03-16T09:06:09;101249.63;;;10.67;37.03
6778;BME280;3426;52.244;10.534;2023-03-16T09:08:36;101263.06;;;9.79;37.71
6778;BME280;3426;52.244;10.534;2023-03-16T09:11:11;101256.03;;;10.20;37.67
6778;BME280;3426;52.244;10.534;2023-03-16T09:13:38;101257.41;;;10.08;38.90
6778;BME280;3426;52.244;10.534;2023-03-16T09:16:09;101257.41;;;10.51;38.52
6778;BME280;3426;52.244;10.534;2023-03-16T09:18:37;101255.56;;;9.90;39.36
6778;BME280;3426;52.244;10.534;2023-03-16T09:21:06;101251.94;;;9.93;38.86
6778;BME280;3426;52.244;10.534;2023-03-16T09:23:33;101262.41;;;9.30;40.56
6778;BME280;3426;52.244;10.534;2023-03-16T09:26:02;101260.44;;;9.57;39.54
6778;BME280;3426;52.244;10.534;2023-03-16T09:28:30;101251.78;;;9.53;38.74
6778;BME280;3426;52.244;10.534;2023-03-16T09:30:57;101248.13;;;9.78;39.31
6778;BME280;3426;52.244;10.534;2023-03-16T09:33:24;101243.59;;;9.81;39.89
6778;BME280;3426;52.244;10.534;2023-03-16T09:35:52;101235.69;;;9.80;41.13
6778;BME280;3426;52.244;10.534;2023-03-16T09:38:18;101236.13;;;9.69;41.13
6778;BME280;3426;52.244;10.534;2023-03-16T09:40:47;101231.88;;;10.07;39.43
6778;BME280;3426;52.244;10.534;2023-03-16T09:43:19;101243.66;;;9.58;39.43
6778;BME280;3426;52.244;10.534;2023-03-16T09:48:18;101229.47;;;9.61;42.83
6778;BME280;3426;52.244;10.534;2023-03-16T09:50:46;101242.25;;;9.92;39.47
6778;BME280;3426;52.244;10.534;2023-03-16T10:06:01;101214.41;;;10.83;34.91
6778;BME280;3426;52.244;10.534;2023-03-16T10:14:20;101198.94;;;10.93;34.90
6778;BME280;3426;52.244;10.534;2023-03-16T10:16:51;101198.97;;;11.29;32.88
6778;BME280;3426;52.244;10.534;2023-03-16T10:21:56;101192.63;;;11.68;33.12
6778;BME280;3426;52.244;10.534;2023-03-16T10:26:56;101185.28;;;11.73;32.00
6778;BME280;3426;52.244;10.534;2023-03-16T10:29:34;101190.25;;;11.45;31.44
6778;BME280;3426;52.244;10.534;2023-03-16T10:32:13;101192.06;;;11.44;31.04
6778;BME280;3426;52.244;10.534;2023-03-16T10:34:44;101198.53;;;10.83;31.32
6778;BME280;3426;52.244;10.534;2023-03-16T10:37:13;101190.03;;;11.49;31.33
6778;BME280;3426;52.244;10.534;2023-03-16T10:39:39;101192.81;;;11.10;29.94
6778;BME280;3426;52.244;10.534;2023-03-16T10:42:19;101197.34;;;11.08;29.51
6778;BME280;3426;52.244;10.534;2023-03-16T10:44:46;101187.88;;;11.21;30.11
6778;BME280;3426;52.244;10.534;2023-03-16T10:47:27;101179.97;;;11.73;29.92
6778;BME280;3426;52.244;10.534;2023-03-16T10:49:53;101187.19;;;11.18;30.35
6778;BME280;3426;52.244;10.534;2023-03-16T10:55:06;101170.63;;;11.66;29.69
6778;BME280;3426;52.244;10.534;2023-03-16T10:57:40;101190.69;;;10.80;30.37
6778;BME280;3426;52.244;10.534;2023-03-16T11:02:35;101171.78;;;10.69;30.68
6778;BME280;3426;52.244;10.534;2023-03-16T11:08:12;101167.28;;;10.90;29.48
6778;BME280;3426;52.244;10.534;2023-03-16T11:10:43;101165.19;;;10.97;29.37
6778;BME280;3426;52.244;10.534;2023-03-16T11:13:21;101160.22;;;11.44;27.90
6778;BME280;3426;52.244;10.534;2023-03-16T11:15:57;101173.19;;;11.14;29.68
6778;BME280;3426;52.244;10.534;2023-03-16T11:18:40;101157.16;;;11.34;28.59
6778;BME280;3426;52.244;10.534;2023-03-16T11:21:16;101148.22;;;10.82;29.08
6778;BME280;3426;52.244;10.534;2023-03-16T11:23:48;101145.47;;;11.38;28.59
6778;BME280;3426;52.244;10.534;2023-03-16T11:26:37;101138.13;;;11.26;29.14
6778;BME280;3426;52.244;10.534;2023-03-16T11:29:18;101144.81;;;10.61;28.90
6778;BME280;3426;52.244;10.534;2023-03-16T11:31:51;101121.44;;;10.88;30.28
6778;BME280;3426;52.244;10.534;2023-03-16T11:34:27;101123.81;;;11.48;28.19
6778;BME280;3426;52.244;10.534;2023-03-16T11:36:56;101121.56;;;11.57;28.70
6778;BME280;3426;52.244;10.534;2023-03-16T11:40:00;101125.84;;;11.43;29.15
6778;BME280;3426;52.244;10.534;2023-03-16T11:42:47;101124.78;;;11.80;29.13
6778;BME280;3426;52.244;10.534;2023-03-16T11:45:40;101122.00;;;11.48;27.96
6778;BME280;3426;52.244;10.534;2023-03-16T11:51:24;101112.75;;;11.91;28.42
6778;BME280;3426;52.244;10.534;2023-03-16T12:00:10;101102.41;;;11.33;27.42
6778;BME280;3426;52.244;10.534;2023-03-16T12:10:33;101081.81;;;11.21;26.81
6778;BME280;3426;52.244;10.534;2023-03-16T12:15:46;101066.84;;;11.55;28.19
6778;BME280;3426;52.244;10.534;2023-03-16T12:18:21;101073.31;;;11.66;26.96
6778;BME280;3426;52.244;10.534;2023-03-16T12:20:57;101064.97;;;12.07;27.31
6778;BME280;3426;52.244;10.534;2023-03-16T12:23:36;101072.94;;;11.91;27.10
6778;BME280;3426;52.244;10.534;2023-03-16T12:26:04;101063.53;;;12.17;26.93
6778;BME280;3426;52.244;10.534;2023-03-16T12:28:31;101065.88;;;11.90;26.98
6778;BME280;3426;52.244;10.534;2023-03-16T12:33:55;101070.91;;;12.12;26.47
6778;BME280;3426;52.244;10.534;2023-03-16T12:45:09;101052.84;;;11.35;27.48
6778;BME280;3426;52.244;10.534;2023-03-16T12:47:55;101043.75;;;11.74;26.30
6778;BME280;3426;52.244;10.534;2023-03-16T12:50:24;101042.19;;;11.70;27.76
6778;BME280;3426;52.244;10.534;2023-03-16T12:52:52;101040.47;;;12.02;27.52
6778;BME280;3426;52.244;10.534;2023-03-16T12:55:42;101033.22;;;11.55;27.94
6778;BME280;3426;52.244;10.534;2023-03-16T12:58:10;101025.22;;;11.73;28.13
6778;BME280;3426;52.244;10.534;2023-03-16T13:00:40;101021.47;;;11.26;28.78
6778;BME280;3426;52.244;10.534;2023-03-16T13:03:15;101010.59;;;11.65;28.63
6778;BME280;3426;52.244;10.534;2023-03-16T13:05:56;101018.97;;;11.06;27.47
6778;BME280;3426;52.244;10.534;2023-03-16T13:08:24;101013.19;;;11.50;27.53
6778;BME280;3426;52.244;10.534;2023-03-16T13:11:10;101011.16;;;11.55;27.50
6778;BME280;3426;52.244;10.534;2023-03-16T13:16:31;101012.63;;;11.60;28.71
6778;BME280;3426;52.244;10.534;2023-03-16T13:18:58;101011.16;;;11.55;28.72
6778;BME280;3426;52.244;10.534;2023-03-16T13:21:38;101009.38;;;11.88;27.48
6778;BME280;3426;52.244;10.534;2023-03-16T13:26:48;100998.03;;;12.50;28.34
6778;BME280;3426;52.244;10.534;2023-03-16T13:31:47;101001.28;;;11.91;26.98
6778;BME280;3426;52.244;10.534;2023-03-16T13:34:28;100986.78;;;12.13;28.17
6778;BME280;3426;52.244;10.534;2023-03-16T13:36:57;100982.69;;;11.91;28.23
6778;BME280;3426;52.244;10.534;2023-03-16T13:39:27;100978.72;;;11.83;28.65
6778;BME280;3426;52.244;10.534;2023-03-16T13:42:14;100979.72;;;11.80;28.61
6778;BME280;3426;52.244;10.534;2023-03-16T13:44:43;100972.47;;;11.33;28.36
6778;BME280;3426;52.244;10.534;2023-03-16T13:47:14;100973.53;;;11.64;28.19
6778;BME280;3426;52.244;10.534;2023-03-16T13:49:49;100975.06;;;11.68;28.55
6778;BME280;3426;52.244;10.534;2023-03-16T13:52:24;100958.97;;;11.71;28.63
6778;BME280;3426;52.244;10.534;2023-03-16T13:54:52;100944.44;;;11.78;28.89
6778;BME280;3426;52.244;10.534;2023-03-16T13:57:21;100944.97;;;11.69;28.35
6778;BME280;3426;52.244;10.534;2023-03-16T13:59:49;100939.44;;;12.05;28.07
6778;BME280;3426;52.244;10.534;2023-03-16T14:02:19;100951.06;;;11.54;28.68
6778;BME280;3426;52.244;10.534;2023-03-16T14:04:47;100944.59;;;12.08;29.41
6778;BME280;3426;52.244;10.534;2023-03-16T14:07:16;100942.16;;;12.35;29.58
6778;BME280;3426;52.244;10.534;2023-03-16T14:10:21;100937.56;;;12.69;29.65
6778;BME280;3426;52.244;10.534;2023-03-16T14:12:55;100929.94;;;12.17;29.44
6778;BME280;3426;52.244;10.534;2023-03-16T14:15:24;100934.16;;;11.72;30.46
6778;BME280;3426;52.244;10.534;2023-03-16T14:17:52;100926.72;;;11.79;30.82
6778;BME280;3426;52.244;10.534;2023-03-16T14:20:29;100935.22;;;12.49;30.82
6778;BME280;3426;52.244;10.534;2023-03-16T14:22:58;100926.16;;;12.05;31.74
6778;BME280;3426;52.244;10.534;2023-03-16T14:25:25;100922.06;;;12.00;30.85
6778;BME280;3426;52.244;10.534;2023-03-16T14:28:00;100923.41;;;11.75;31.22
6778;BME280;3426;52.244;10.534;2023-03-16T14:30:28;100910.31;;;11.88;30.64
6778;BME280;3426;52.244;10.534;2023-03-16T14:33:01;100905.28;;;11.83;31.63
6778;BME280;3426;52.244;10.534;2023-03-16T14:37:55;100894.06;;;12.56;32.44
6778;BME280;3426;52.244;10.534;2023-03-16T14:40:27;100893.81;;;11.99;32.79
6778;BME280;3426;52.244;10.534;2023-03-16T14:42:58;100903.22;;;11.88;32.93
6778;BME280;3426;52.244;10.534;2023-03-16T14:45:30;100892.25;;;11.94;33.07